Kezdőlap
METAR-TAF:

METAR-TAF

Repülőterek :

Dübendorf, Svájc

földrajzi szélesség: 47-23-55N, földrajzi hosszúság: 8-38-53E, magasság: 448 m

Jelenlegi meteorológiai megfigyelések

A jelentés 20 perccel ezelõtt készült, 15:20 UTC
Dél-délkeleti szél 5 kt
Hőmérséklet 11°C
Páratartalom 71%
Légköri nyomás 1009 hPa
Látótávolság 10 km, vagy több
Szakadozott felhőzet 9200 lábon

METAR: LSMD 151520Z AUTO 15005KT 9999NDV BKN092 11/06 Q1009 RMK

Idő: 16:40 (15:40 UTC)


TAF: hiányzik

Meteorológiai megfigyelések és előrejelzések több, mint 4000 repülőtéren (METAR és TAF jelentéseket).

A térképen piros és sárga pontok jelzik az elérhető meteorológiai állomásokat.

Mozgassa az egeret a pont fölött, hogy megjelenjen az állomás neve.

Azután kattintson az időjárási megfigyelések és előrejelzések megtekintéséhez.

A térkép megváltoztatása: kattintson a fekete keresztel jelölt zöld gombra ráközelítéshez, a vonallal jelölt zöld gombra távolításhoz, vagy a zöld nyilakra a szomszédos térképek eléréséhez.


METAR-TAF: